sensor_id;sensor_type;location;lat;lon;timestamp;pressure;altitude;pressure_sealevel;temperature;humidity
22653;BME280;11493;43.344;26.226;2023-03-15T00:00:49;98285.66;;;2.68;74.26
22653;BME280;11493;43.344;26.226;2023-03-15T00:03:16;98293.34;;;2.60;74.16
22653;BME280;11493;43.344;26.226;2023-03-15T00:05:44;98302.06;;;2.57;74.60
22653;BME280;11493;43.344;26.226;2023-03-15T00:08:12;98286.09;;;2.51;74.77
22653;BME280;11493;43.344;26.226;2023-03-15T00:10:44;98274.44;;;2.50;74.45
22653;BME280;11493;43.344;26.226;2023-03-15T00:13:13;98276.34;;;2.50;74.39
22653;BME280;11493;43.344;26.226;2023-03-15T00:15:51;98280.09;;;2.54;75.03
22653;BME280;11493;43.344;26.226;2023-03-15T00:18:19;98270.03;;;2.54;74.66
22653;BME280;11493;43.344;26.226;2023-03-15T00:20:47;98272.19;;;2.57;74.81
22653;BME280;11493;43.344;26.226;2023-03-15T00:23:14;98259.28;;;2.44;74.49
22653;BME280;11493;43.344;26.226;2023-03-15T00:25:46;98267.53;;;2.34;75.65
22653;BME280;11493;43.344;26.226;2023-03-15T00:28:13;98258.31;;;2.35;75.48
22653;BME280;11493;43.344;26.226;2023-03-15T00:30:41;98252.31;;;2.38;75.67
22653;BME280;11493;43.344;26.226;2023-03-15T00:33:10;98249.16;;;2.26;76.21
22653;BME280;11493;43.344;26.226;2023-03-15T00:35:41;98240.59;;;2.19;76.34
22653;BME280;11493;43.344;26.226;2023-03-15T00:38:08;98224.06;;;2.15;76.20
22653;BME280;11493;43.344;26.226;2023-03-15T00:40:36;98232.72;;;2.17;76.58
22653;BME280;11493;43.344;26.226;2023-03-15T00:43:04;98227.88;;;2.14;76.48
22653;BME280;11493;43.344;26.226;2023-03-15T00:45:31;98223.84;;;2.12;76.93
22653;BME280;11493;43.344;26.226;2023-03-15T00:47:58;98226.03;;;2.10;77.10
22653;BME280;11493;43.344;26.226;2023-03-15T00:50:25;98213.03;;;2.07;77.11
22653;BME280;11493;43.344;26.226;2023-03-15T00:52:53;98212.50;;;2.05;77.18
22653;BME280;11493;43.344;26.226;2023-03-15T00:55:20;98206.50;;;2.08;77.07
22653;BME280;11493;43.344;26.226;2023-03-15T00:57:48;98210.31;;;2.07;77.46
22653;BME280;11493;43.344;26.226;2023-03-15T01:00:19;98200.72;;;1.90;78.25
22653;BME280;11493;43.344;26.226;2023-03-15T01:02:52;98205.28;;;1.95;78.18
22653;BME280;11493;43.344;26.226;2023-03-15T01:05:20;98191.47;;;1.91;77.86
22653;BME280;11493;43.344;26.226;2023-03-15T01:07:47;98189.81;;;1.95;78.24
22653;BME280;11493;43.344;26.226;2023-03-15T01:10:15;98187.66;;;1.92;78.46
22653;BME280;11493;43.344;26.226;2023-03-15T01:12:44;98186.81;;;1.97;78.42
22653;BME280;11493;43.344;26.226;2023-03-15T01:15:13;98173.63;;;1.85;78.10
22653;BME280;11493;43.344;26.226;2023-03-15T01:17:40;98171.78;;;1.81;78.12
22653;BME280;11493;43.344;26.226;2023-03-15T01:20:10;98180.72;;;1.81;78.47
22653;BME280;11493;43.344;26.226;2023-03-15T01:22:38;98180.47;;;1.78;78.85
22653;BME280;11493;43.344;26.226;2023-03-15T01:25:06;98167.22;;;1.76;78.86
22653;BME280;11493;43.344;26.226;2023-03-15T01:27:33;98152.78;;;1.81;78.26
22653;BME280;11493;43.344;26.226;2023-03-15T01:30:00;98158.56;;;1.74;78.33
22653;BME280;11493;43.344;26.226;2023-03-15T01:32:27;98173.34;;;1.87;78.49
22653;BME280;11493;43.344;26.226;2023-03-15T01:35:11;98152.03;;;1.75;78.42
22653;BME280;11493;43.344;26.226;2023-03-15T01:37:38;98160.75;;;1.72;78.41
22653;BME280;11493;43.344;26.226;2023-03-15T01:40:08;98149.97;;;1.62;78.93
22653;BME280;11493;43.344;26.226;2023-03-15T01:43:17;98165.72;;;1.60;79.88
22653;BME280;11493;43.344;26.226;2023-03-15T01:46:05;98164.41;;;1.57;80.03
22653;BME280;11493;43.344;26.226;2023-03-15T01:48:39;98156.59;;;1.51;80.00
22653;BME280;11493;43.344;26.226;2023-03-15T01:51:31;98125.00;;;1.41;79.67
22653;BME280;11493;43.344;26.226;2023-03-15T01:54:01;98154.59;;;1.61;79.49
22653;BME280;11493;43.344;26.226;2023-03-15T01:56:33;98148.66;;;1.59;79.18
22653;BME280;11493;43.344;26.226;2023-03-15T01:59:03;98145.13;;;1.59;79.61
22653;BME280;11493;43.344;26.226;2023-03-15T02:01:32;98134.25;;;1.64;79.29
22653;BME280;11493;43.344;26.226;2023-03-15T02:04:08;98128.69;;;1.50;79.28
22653;BME280;11493;43.344;26.226;2023-03-15T02:06:41;98128.97;;;1.49;79.71
22653;BME280;11493;43.344;26.226;2023-03-15T02:09:14;98118.44;;;1.47;79.99
22653;BME280;11493;43.344;26.226;2023-03-15T02:11:45;98132.06;;;1.66;79.32
22653;BME280;11493;43.344;26.226;2023-03-15T02:14:12;98109.94;;;1.54;79.75
22653;BME280;11493;43.344;26.226;2023-03-15T02:16:41;98111.03;;;1.53;80.55
22653;BME280;11493;43.344;26.226;2023-03-15T02:25:21;98120.69;;;1.64;80.07
22653;BME280;11493;43.344;26.226;2023-03-15T02:28:11;98111.22;;;1.61;80.46
22653;BME280;11493;43.344;26.226;2023-03-15T02:30:41;98115.94;;;1.51;80.72
22653;BME280;11493;43.344;26.226;2023-03-15T02:35:52;98114.91;;;1.47;80.75
22653;BME280;11493;43.344;26.226;2023-03-15T02:38:19;98141.25;;;1.41;81.41
22653;BME280;11493;43.344;26.226;2023-03-15T02:40:50;98125.28;;;1.40;81.83
22653;BME280;11493;43.344;26.226;2023-03-15T02:46:07;98129.69;;;1.30;82.16
22653;BME280;11493;43.344;26.226;2023-03-15T02:48:35;98130.78;;;1.29;82.34
22653;BME280;11493;43.344;26.226;2023-03-15T02:51:03;98132.97;;;1.27;82.53
22653;BME280;11493;43.344;26.226;2023-03-15T02:53:31;98137.25;;;1.34;82.67
22653;BME280;11493;43.344;26.226;2023-03-15T02:55:58;98121.81;;;1.34;82.70
22653;BME280;11493;43.344;26.226;2023-03-15T02:58:25;98131.75;;;1.44;81.80
22653;BME280;11493;43.344;26.226;2023-03-15T03:00:52;98129.75;;;1.49;81.65
22653;BME280;11493;43.344;26.226;2023-03-15T03:03:19;98107.44;;;1.34;81.55
22653;BME280;11493;43.344;26.226;2023-03-15T03:05:47;98127.50;;;1.33;82.07
22653;BME280;11493;43.344;26.226;2023-03-15T03:08:14;98128.03;;;1.35;82.51
22653;BME280;11493;43.344;26.226;2023-03-15T03:10:42;98099.00;;;1.06;82.80
22653;BME280;11493;43.344;26.226;2023-03-15T03:13:09;98138.94;;;1.24;83.64
22653;BME280;11493;43.344;26.226;2023-03-15T03:15:38;98126.78;;;1.22;83.13
22653;BME280;11493;43.344;26.226;2023-03-15T03:18:05;98135.94;;;1.26;83.30
22653;BME280;11493;43.344;26.226;2023-03-15T03:20:32;98141.28;;;1.36;82.92
22653;BME280;11493;43.344;26.226;2023-03-15T03:22:59;98119.63;;;1.36;82.61
22653;BME280;11493;43.344;26.226;2023-03-15T03:25:32;98135.91;;;1.31;82.95
22653;BME280;11493;43.344;26.226;2023-03-15T03:27:59;98134.28;;;1.30;83.89
22653;BME280;11493;43.344;26.226;2023-03-15T03:30:31;98154.47;;;1.48;84.41
22653;BME280;11493;43.344;26.226;2023-03-15T03:32:58;98146.38;;;1.43;84.42
22653;BME280;11493;43.344;26.226;2023-03-15T03:35:25;98144.78;;;1.42;84.52
22653;BME280;11493;43.344;26.226;2023-03-15T03:37:53;98144.19;;;1.45;84.19
22653;BME280;11493;43.344;26.226;2023-03-15T03:40:26;98147.44;;;1.47;84.04
22653;BME280;11493;43.344;26.226;2023-03-15T03:42:53;98129.84;;;1.44;83.51
22653;BME280;11493;43.344;26.226;2023-03-15T03:45:21;98143.03;;;1.51;83.70
22653;BME280;11493;43.344;26.226;2023-03-15T03:47:51;98150.88;;;1.52;83.97
22653;BME280;11493;43.344;26.226;2023-03-15T03:50:19;98129.06;;;1.39;84.30
22653;BME280;11493;43.344;26.226;2023-03-15T03:52:46;98141.66;;;1.53;83.96
22653;BME280;11493;43.344;26.226;2023-03-15T03:55:19;98136.59;;;1.47;84.42
22653;BME280;11493;43.344;26.226;2023-03-15T03:57:52;98129.88;;;1.39;84.63
22653;BME280;11493;43.344;26.226;2023-03-15T04:00:40;98131.78;;;1.39;84.99
22653;BME280;11493;43.344;26.226;2023-03-15T04:03:10;98142.88;;;1.42;85.37
22653;BME280;11493;43.344;26.226;2023-03-15T04:05:41;98124.78;;;1.33;85.33
22653;BME280;11493;43.344;26.226;2023-03-15T04:08:11;98133.94;;;1.42;85.47
22653;BME280;11493;43.344;26.226;2023-03-15T04:10:39;98126.03;;;1.45;85.18
22653;BME280;11493;43.344;26.226;2023-03-15T04:13:07;98130.38;;;1.46;84.66
22653;BME280;11493;43.344;26.226;2023-03-15T04:15:34;98110.69;;;1.36;84.82
22653;BME280;11493;43.344;26.226;2023-03-15T04:18:02;98129.06;;;1.39;84.88
22653;BME280;11493;43.344;26.226;2023-03-15T04:20:37;98129.88;;;1.39;84.71
22653;BME280;11493;43.344;26.226;2023-03-15T04:23:04;98139.34;;;1.42;85.20
22653;BME280;11493;43.344;26.226;2023-03-15T04:25:40;98115.00;;;1.37;85.20
22653;BME280;11493;43.344;26.226;2023-03-15T04:28:16;98135.50;;;1.48;85.52
22653;BME280;11493;43.344;26.226;2023-03-15T04:31:07;98120.38;;;1.42;86.01
22653;BME280;11493;43.344;26.226;2023-03-15T04:33:56;98138.03;;;1.63;85.67
22653;BME280;11493;43.344;26.226;2023-03-15T04:36:29;98131.19;;;1.71;85.08
22653;BME280;11493;43.344;26.226;2023-03-15T04:39:15;98128.97;;;1.78;84.60
22653;BME280;11493;43.344;26.226;2023-03-15T04:42:00;98138.47;;;1.75;84.58
22653;BME280;11493;43.344;26.226;2023-03-15T04:45:01;98122.31;;;1.65;84.68
22653;BME280;11493;43.344;26.226;2023-03-15T04:47:53;98138.44;;;1.80;84.73
22653;BME280;11493;43.344;26.226;2023-03-15T04:50:34;98120.06;;;1.72;84.33
22653;BME280;11493;43.344;26.226;2023-03-15T04:53:30;98118.34;;;1.81;84.54
22653;BME280;11493;43.344;26.226;2023-03-15T04:56:09;98126.38;;;1.91;84.74
22653;BME280;11493;43.344;26.226;2023-03-15T04:59:04;98119.22;;;2.01;83.69
22653;BME280;11493;43.344;26.226;2023-03-15T05:01:51;98116.41;;;2.11;83.79
22653;BME280;11493;43.344;26.226;2023-03-15T05:04:29;98119.56;;;2.18;83.69
22653;BME280;11493;43.344;26.226;2023-03-15T05:07:18;98110.47;;;2.27;83.50
22653;BME280;11493;43.344;26.226;2023-03-15T05:09:48;98114.03;;;2.47;82.83
22653;BME280;11493;43.344;26.226;2023-03-15T05:12:31;98114.13;;;2.60;81.98
22653;BME280;11493;43.344;26.226;2023-03-15T05:15:19;98121.63;;;2.69;82.52
22653;BME280;11493;43.344;26.226;2023-03-15T05:18:18;98123.97;;;2.75;82.47
22653;BME280;11493;43.344;26.226;2023-03-15T05:21:06;98112.75;;;2.82;82.38
22653;BME280;11493;43.344;26.226;2023-03-15T05:23:52;98106.34;;;2.91;81.93
22653;BME280;11493;43.344;26.226;2023-03-15T05:26:37;98095.09;;;2.98;81.54
22653;BME280;11493;43.344;26.226;2023-03-15T05:29:24;98116.63;;;3.27;81.09
22653;BME280;11493;43.344;26.226;2023-03-15T05:32:07;98111.34;;;3.36;81.33
22653;BME280;11493;43.344;26.226;2023-03-15T05:34:56;98105.13;;;3.49;80.54
22653;BME280;11493;43.344;26.226;2023-03-15T05:37:46;98101.13;;;3.60;80.72
22653;BME280;11493;43.344;26.226;2023-03-15T05:40:33;98118.69;;;3.81;79.80
22653;BME280;11493;43.344;26.226;2023-03-15T05:43:23;98105.00;;;4.00;79.41
22653;BME280;11493;43.344;26.226;2023-03-15T05:46:09;98095.22;;;4.13;79.00
22653;BME280;11493;43.344;26.226;2023-03-15T05:48:52;98098.25;;;4.25;78.24
22653;BME280;11493;43.344;26.226;2023-03-15T05:51:40;98097.63;;;4.28;78.78
22653;BME280;11493;43.344;26.226;2023-03-15T05:54:25;98098.44;;;4.42;79.02
22653;BME280;11493;43.344;26.226;2023-03-15T05:57:16;98106.25;;;4.57;79.07
22653;BME280;11493;43.344;26.226;2023-03-15T05:59:58;98097.75;;;4.73;78.38
22653;BME280;11493;43.344;26.226;2023-03-15T06:02:42;98095.19;;;4.90;78.32
22653;BME280;11493;43.344;26.226;2023-03-15T06:05:22;98103.75;;;4.97;78.25
22653;BME280;11493;43.344;26.226;2023-03-15T06:07:49;98088.19;;;4.98;77.98
22653;BME280;11493;43.344;26.226;2023-03-15T06:10:18;98077.34;;;5.06;77.29
22653;BME280;11493;43.344;26.226;2023-03-15T06:12:45;98098.03;;;5.29;77.75
22653;BME280;11493;43.344;26.226;2023-03-15T06:15:13;98083.47;;;5.34;77.40
22653;BME280;11493;43.344;26.226;2023-03-15T06:17:40;98095.13;;;5.48;77.17
22653;BME280;11493;43.344;26.226;2023-03-15T06:20:08;98082.91;;;5.46;77.59
22653;BME280;11493;43.344;26.226;2023-03-15T06:22:35;98088.97;;;5.65;77.67
22653;BME280;11493;43.344;26.226;2023-03-15T06:25:10;98076.78;;;5.71;77.01
22653;BME280;11493;43.344;26.226;2023-03-15T06:27:38;98090.53;;;5.88;76.52
22653;BME280;11493;43.344;26.226;2023-03-15T06:30:06;98084.97;;;5.93;76.08
22653;BME280;11493;43.344;26.226;2023-03-15T06:32:34;98097.69;;;6.07;76.03
22653;BME280;11493;43.344;26.226;2023-03-15T06:35:01;98098.03;;;6.14;75.95
22653;BME280;11493;43.344;26.226;2023-03-15T06:37:28;98099.00;;;6.18;75.86
22653;BME280;11493;43.344;26.226;2023-03-15T06:40:05;98107.25;;;6.35;75.60
22653;BME280;11493;43.344;26.226;2023-03-15T06:42:37;98103.00;;;6.60;75.04
22653;BME280;11493;43.344;26.226;2023-03-15T06:45:07;98103.00;;;6.86;73.76
22653;BME280;11493;43.344;26.226;2023-03-15T06:47:36;98094.16;;;6.89;73.21
22653;BME280;11493;43.344;26.226;2023-03-15T06:50:04;98093.53;;;7.09;72.32
22653;BME280;11493;43.344;26.226;2023-03-15T06:52:32;98092.56;;;7.22;71.31
22653;BME280;11493;43.344;26.226;2023-03-15T06:54:59;98097.81;;;7.45;70.79
22653;BME280;11493;43.344;26.226;2023-03-15T06:57:27;98091.81;;;7.77;70.28
22653;BME280;11493;43.344;26.226;2023-03-15T06:59:54;98091.03;;;8.15;69.16
22653;BME280;11493;43.344;26.226;2023-03-15T07:02:21;98080.56;;;8.46;66.70
22653;BME280;11493;43.344;26.226;2023-03-15T07:04:48;98088.25;;;8.82;67.31
22653;BME280;11493;43.344;26.226;2023-03-15T07:07:15;98084.16;;;9.09;63.99
22653;BME280;11493;43.344;26.226;2023-03-15T07:09:43;98072.19;;;9.14;63.76
22653;BME280;11493;43.344;26.226;2023-03-15T07:12:11;98065.28;;;9.29;63.88
22653;BME280;11493;43.344;26.226;2023-03-15T07:14:39;98060.31;;;9.43;62.61
22653;BME280;11493;43.344;26.226;2023-03-15T07:17:06;98062.28;;;9.67;62.02
22653;BME280;11493;43.344;26.226;2023-03-15T07:19:33;98051.22;;;9.75;62.24
22653;BME280;11493;43.344;26.226;2023-03-15T07:22:07;98047.59;;;9.96;60.59
22653;BME280;11493;43.344;26.226;2023-03-15T07:24:34;98035.31;;;9.81;60.64
22653;BME280;11493;43.344;26.226;2023-03-15T07:27:01;98043.94;;;10.04;59.61
22653;BME280;11493;43.344;26.226;2023-03-15T07:29:28;98038.56;;;10.07;59.91
22653;BME280;11493;43.344;26.226;2023-03-15T07:31:55;98026.41;;;10.08;58.28
22653;BME280;11493;43.344;26.226;2023-03-15T07:34:22;98031.56;;;10.10;58.84
22653;BME280;11493;43.344;26.226;2023-03-15T07:36:49;98028.94;;;10.13;58.27
22653;BME280;11493;43.344;26.226;2023-03-15T07:39:16;98006.59;;;10.03;58.82
22653;BME280;11493;43.344;26.226;2023-03-15T07:41:43;98000.19;;;10.11;59.05
22653;BME280;11493;43.344;26.226;2023-03-15T07:44:20;98006.13;;;10.49;58.53
22653;BME280;11493;43.344;26.226;2023-03-15T07:46:46;97998.75;;;10.66;56.83
22653;BME280;11493;43.344;26.226;2023-03-15T07:49:14;98003.09;;;10.79;56.25
22653;BME280;11493;43.344;26.226;2023-03-15T07:51:41;97993.88;;;10.87;56.27
22653;BME280;11493;43.344;26.226;2023-03-15T07:54:09;97985.97;;;10.85;55.98
22653;BME280;11493;43.344;26.226;2023-03-15T07:56:36;97994.00;;;10.91;55.74
22653;BME280;11493;43.344;26.226;2023-03-15T07:59:03;97996.34;;;11.04;55.39
22653;BME280;11493;43.344;26.226;2023-03-15T08:01:30;97986.63;;;11.23;55.38
22653;BME280;11493;43.344;26.226;2023-03-15T08:03:57;97991.41;;;11.26;55.51
22653;BME280;11493;43.344;26.226;2023-03-15T08:06:24;97991.16;;;11.31;54.81
22653;BME280;11493;43.344;26.226;2023-03-15T08:08:51;97976.25;;;11.32;54.82
22653;BME280;11493;43.344;26.226;2023-03-15T08:11:18;97976.09;;;11.40;54.78
22653;BME280;11493;43.344;26.226;2023-03-15T08:13:46;97999.22;;;11.67;53.99
22653;BME280;11493;43.344;26.226;2023-03-15T08:16:13;97985.53;;;11.71;53.39
22653;BME280;11493;43.344;26.226;2023-03-15T08:18:40;97992.84;;;11.95;52.99
22653;BME280;11493;43.344;26.226;2023-03-15T08:21:07;97985.19;;;12.04;53.25
22653;BME280;11493;43.344;26.226;2023-03-15T08:23:34;97987.84;;;12.16;52.68
22653;BME280;11493;43.344;26.226;2023-03-15T08:26:01;97979.84;;;11.95;52.76
22653;BME280;11493;43.344;26.226;2023-03-15T08:28:28;97982.44;;;12.04;52.74
22653;BME280;11493;43.344;26.226;2023-03-15T08:30:55;97996.72;;;12.41;51.83
22653;BME280;11493;43.344;26.226;2023-03-15T08:33:22;98002.28;;;12.60;51.43
22653;BME280;11493;43.344;26.226;2023-03-15T08:35:52;97998.19;;;12.73;50.76
22653;BME280;11493;43.344;26.226;2023-03-15T08:38:19;97987.97;;;12.74;50.94
22653;BME280;11493;43.344;26.226;2023-03-15T08:40:46;98002.16;;;12.92;50.82
22653;BME280;11493;43.344;26.226;2023-03-15T08:43:14;98005.00;;;13.14;49.91
22653;BME280;11493;43.344;26.226;2023-03-15T08:45:40;97973.44;;;12.96;49.89
22653;BME280;11493;43.344;26.226;2023-03-15T08:48:26;97998.09;;;13.24;50.00
22653;BME280;11493;43.344;26.226;2023-03-15T08:50:53;97999.53;;;13.37;49.50
22653;BME280;11493;43.344;26.226;2023-03-15T08:53:20;97986.66;;;13.45;49.52
22653;BME280;11493;43.344;26.226;2023-03-15T08:55:48;97996.94;;;13.67;49.68
22653;BME280;11493;43.344;26.226;2023-03-15T08:58:15;97989.00;;;13.89;48.74
22653;BME280;11493;43.344;26.226;2023-03-15T09:00:42;97976.47;;;13.95;48.49
22653;BME280;11493;43.344;26.226;2023-03-15T09:03:09;97990.13;;;14.07;48.32
22653;BME280;11493;43.344;26.226;2023-03-15T09:05:37;97985.94;;;14.20;47.35
22653;BME280;11493;43.344;26.226;2023-03-15T09:08:04;97973.47;;;14.30;47.01
22653;BME280;11493;43.344;26.226;2023-03-15T09:10:31;97977.31;;;14.48;47.48
22653;BME280;11493;43.344;26.226;2023-03-15T09:13:00;97965.22;;;14.60;47.16
22653;BME280;11493;43.344;26.226;2023-03-15T09:15:27;97968.47;;;14.65;47.90
22653;BME280;11493;43.344;26.226;2023-03-15T09:17:54;97970.16;;;14.73;47.89
22653;BME280;11493;43.344;26.226;2023-03-15T09:20:22;97965.56;;;14.55;46.78
22653;BME280;11493;43.344;26.226;2023-03-15T09:22:55;97965.94;;;14.83;46.69
22653;BME280;11493;43.344;26.226;2023-03-15T09:25:23;97966.06;;;14.94;45.75
22653;BME280;11493;43.344;26.226;2023-03-15T09:27:50;97958.06;;;14.89;46.02
22653;BME280;11493;43.344;26.226;2023-03-15T09:30:18;97953.50;;;15.03;46.25
22653;BME280;11493;43.344;26.226;2023-03-15T09:32:45;97954.53;;;15.22;46.04
22653;BME280;11493;43.344;26.226;2023-03-15T09:35:15;97949.91;;;15.33;45.86
22653;BME280;11493;43.344;26.226;2023-03-15T09:37:42;97942.09;;;15.45;44.36
22653;BME280;11493;43.344;26.226;2023-03-15T09:40:31;97944.72;;;15.68;43.75
22653;BME280;11493;43.344;26.226;2023-03-15T09:43:38;97926.50;;;15.71;43.80
22653;BME280;11493;43.344;26.226;2023-03-15T09:46:30;97939.16;;;15.68;42.99
22653;BME280;11493;43.344;26.226;2023-03-15T09:49:19;97937.03;;;15.95;42.45
22653;BME280;11493;43.344;26.226;2023-03-15T09:51:58;97927.59;;;16.07;42.03
22653;BME280;11493;43.344;26.226;2023-03-15T09:54:36;97935.25;;;16.21;42.06
22653;BME280;11493;43.344;26.226;2023-03-15T09:57:16;97935.72;;;16.37;42.57
22653;BME280;11493;43.344;26.226;2023-03-15T09:59:47;97936.72;;;16.66;41.08
22653;BME280;11493;43.344;26.226;2023-03-15T10:02:29;97923.25;;;16.68;41.67
22653;BME280;11493;43.344;26.226;2023-03-15T10:05:07;97949.97;;;16.97;40.36
22653;BME280;11493;43.344;26.226;2023-03-15T10:07:36;97949.59;;;17.02;40.20
22653;BME280;11493;43.344;26.226;2023-03-15T10:10:13;97940.00;;;16.86;40.60
22653;BME280;11493;43.344;26.226;2023-03-15T10:12:45;97930.09;;;16.88;40.49
22653;BME280;11493;43.344;26.226;2023-03-15T10:20:35;97910.41;;;16.49;40.06
22653;BME280;11493;43.344;26.226;2023-03-15T10:26:14;97910.03;;;16.54;39.90
22653;BME280;11493;43.344;26.226;2023-03-15T10:28:42;97899.38;;;16.60;39.37
22653;BME280;11493;43.344;26.226;2023-03-15T10:31:15;97891.44;;;16.58;38.57
22653;BME280;11493;43.344;26.226;2023-03-15T10:33:55;97897.88;;;16.77;37.45
22653;BME280;11493;43.344;26.226;2023-03-15T10:36:24;97887.59;;;16.84;37.99
22653;BME280;11493;43.344;26.226;2023-03-15T10:38:51;97893.19;;;16.95;37.22
22653;BME280;11493;43.344;26.226;2023-03-15T10:41:36;97882.84;;;16.88;37.21
22653;BME280;11493;43.344;26.226;2023-03-15T10:47:00;97884.44;;;16.82;37.20
22653;BME280;11493;43.344;26.226;2023-03-15T10:49:37;97885.19;;;16.79;37.79
22653;BME280;11493;43.344;26.226;2023-03-15T10:52:05;97882.09;;;16.95;37.60
22653;BME280;11493;43.344;26.226;2023-03-15T10:54:33;97869.78;;;16.92;36.76
22653;BME280;11493;43.344;26.226;2023-03-15T10:57:14;97867.81;;;17.00;36.36
22653;BME280;11493;43.344;26.226;2023-03-15T11:00:01;97867.44;;;17.05;36.49
22653;BME280;11493;43.344;26.226;2023-03-15T11:02:35;97859.88;;;17.13;36.24
22653;BME280;11493;43.344;26.226;2023-03-15T11:07:52;97864.69;;;17.37;36.09
22653;BME280;11493;43.344;26.226;2023-03-15T11:10:22;97850.41;;;17.42;35.83
22653;BME280;11493;43.344;26.226;2023-03-15T11:12:49;97848.47;;;17.67;35.10
22653;BME280;11493;43.344;26.226;2023-03-15T11:15:17;97847.22;;;17.58;34.74
22653;BME280;11493;43.344;26.226;2023-03-15T11:17:47;97843.28;;;17.69;34.52
22653;BME280;11493;43.344;26.226;2023-03-15T11:20:37;97847.22;;;17.86;34.02
22653;BME280;11493;43.344;26.226;2023-03-15T11:23:17;97828.16;;;17.92;34.03
22653;BME280;11493;43.344;26.226;2023-03-15T11:25:46;97832.53;;;17.64;35.05
22653;BME280;11493;43.344;26.226;2023-03-15T11:28:19;97832.13;;;17.84;32.82
22653;BME280;11493;43.344;26.226;2023-03-15T11:30:47;97828.53;;;18.01;33.28
22653;BME280;11493;43.344;26.226;2023-03-15T11:35:55;97826.06;;;18.31;32.90
22653;BME280;11493;43.344;26.226;2023-03-15T11:38:32;97818.47;;;18.43;32.60
22653;BME280;11493;43.344;26.226;2023-03-15T11:41:09;97820.84;;;18.48;33.82
22653;BME280;11493;43.344;26.226;2023-03-15T11:46:49;97816.06;;;18.52;33.05
22653;BME280;11493;43.344;26.226;2023-03-15T11:49:23;97808.25;;;18.08;34.50
22653;BME280;11493;43.344;26.226;2023-03-15T11:51:55;97796.75;;;17.84;34.07
22653;BME280;11493;43.344;26.226;2023-03-15T11:54:28;97814.19;;;18.17;33.58
22653;BME280;11493;43.344;26.226;2023-03-15T12:00:17;97812.56;;;18.26;32.24
22653;BME280;11493;43.344;26.226;2023-03-15T12:02:51;97809.03;;;18.01;31.99
22653;BME280;11493;43.344;26.226;2023-03-15T12:05:50;97804.28;;;18.01;31.97
22653;BME280;11493;43.344;26.226;2023-03-15T12:08:20;97795.88;;;18.19;31.92
22653;BME280;11493;43.344;26.226;2023-03-15T12:10:47;97798.66;;;18.23;31.76
22653;BME280;11493;43.344;26.226;2023-03-15T12:13:22;97777.59;;;18.22;31.32
22653;BME280;11493;43.344;26.226;2023-03-15T12:15:50;97796.59;;;18.45;31.65
22653;BME280;11493;43.344;26.226;2023-03-15T12:18:21;97789.34;;;18.58;31.30
22653;BME280;11493;43.344;26.226;2023-03-15T12:21:11;97785.31;;;18.73;31.45
22653;BME280;11493;43.344;26.226;2023-03-15T12:23:57;97793.88;;;19.07;30.46
22653;BME280;11493;43.344;26.226;2023-03-15T12:26:39;97786.25;;;19.15;32.73
22653;BME280;11493;43.344;26.226;2023-03-15T12:31:43;97777.06;;;19.21;30.78
22653;BME280;11493;43.344;26.226;2023-03-15T12:39:58;97763.09;;;19.25;31.00
22653;BME280;11493;43.344;26.226;2023-03-15T12:48:31;97753.84;;;19.80;29.94
22653;BME280;11493;43.344;26.226;2023-03-15T12:53:15;97744.09;;;19.95;29.96
22653;BME280;11493;43.344;26.226;2023-03-15T12:55:45;97746.47;;;19.96;30.31
22653;BME280;11493;43.344;26.226;2023-03-15T12:58:15;97738.56;;;19.47;29.24
22653;BME280;11493;43.344;26.226;2023-03-15T13:00:44;97752.00;;;19.14;31.00
22653;BME280;11493;43.344;26.226;2023-03-15T13:03:18;97734.81;;;19.23;29.54
22653;BME280;11493;43.344;26.226;2023-03-15T13:11:32;97741.88;;;18.83;30.06
22653;BME280;11493;43.344;26.226;2023-03-15T13:17:07;97763.28;;;18.96;30.29
22653;BME280;11493;43.344;26.226;2023-03-15T13:19:49;97754.72;;;18.66;30.44
22653;BME280;11493;43.344;26.226;2023-03-15T13:25:29;97774.56;;;18.75;30.75
22653;BME280;11493;43.344;26.226;2023-03-15T13:28:21;97765.84;;;18.66;30.32
22653;BME280;11493;43.344;26.226;2023-03-15T13:30:51;97772.59;;;18.68;30.57
22653;BME280;11493;43.344;26.226;2023-03-15T13:33:23;97770.59;;;18.73;30.49
22653;BME280;11493;43.344;26.226;2023-03-15T13:36:02;97751.53;;;18.67;30.62
22653;BME280;11493;43.344;26.226;2023-03-15T13:38:33;97767.38;;;18.78;31.33
22653;BME280;11493;43.344;26.226;2023-03-15T13:41:02;97766.59;;;18.77;31.51
22653;BME280;11493;43.344;26.226;2023-03-15T13:43:33;97770.50;;;18.87;31.91
22653;BME280;11493;43.344;26.226;2023-03-15T13:46:00;97776.84;;;18.94;31.57
22653;BME280;11493;43.344;26.226;2023-03-15T13:48:30;97775.28;;;18.90;30.55
22653;BME280;11493;43.344;26.226;2023-03-15T13:51:03;97779.25;;;18.89;31.22
22653;BME280;11493;43.344;26.226;2023-03-15T13:53:34;97768.97;;;18.79;31.39
22653;BME280;11493;43.344;26.226;2023-03-15T13:56:21;97766.97;;;18.79;31.74
22653;BME280;11493;43.344;26.226;2023-03-15T13:58:56;97766.25;;;18.64;32.16
22653;BME280;11493;43.344;26.226;2023-03-15T14:01:24;97756.72;;;18.62;32.03
22653;BME280;11493;43.344;26.226;2023-03-15T14:03:57;97750.00;;;18.56;31.76
22653;BME280;11493;43.344;26.226;2023-03-15T14:06:27;97753.13;;;18.65;31.27
22653;BME280;11493;43.344;26.226;2023-03-15T14:09:00;97751.19;;;18.55;32.30
22653;BME280;11493;43.344;26.226;2023-03-15T14:11:35;97765.88;;;18.62;32.57
22653;BME280;11493;43.344;26.226;2023-03-15T14:14:13;97764.34;;;18.51;31.74
22653;BME280;11493;43.344;26.226;2023-03-15T14:16:46;97765.56;;;18.43;33.09
22653;BME280;11493;43.344;26.226;2023-03-15T14:19:33;97759.31;;;18.17;34.27
22653;BME280;11493;43.344;26.226;2023-03-15T14:22:13;97764.47;;;18.15;34.08
22653;BME280;11493;43.344;26.226;2023-03-15T14:24:47;97758.50;;;18.20;34.52
22653;BME280;11493;43.344;26.226;2023-03-15T14:27:21;97756.94;;;18.12;34.65